createdAt,value
2018-02-01T00:01:44.346Z,82.08
2018-02-01T00:04:13.447Z,82.26
2018-02-01T00:06:42.518Z,82.23
2018-02-01T00:09:11.609Z,82.28
2018-02-01T00:11:40.701Z,82.60
2018-02-01T00:14:09.793Z,82.14
2018-02-01T00:16:38.870Z,82.57
2018-02-01T00:19:08.718Z,82.67
2018-02-01T00:21:37.815Z,82.42
2018-02-01T00:24:06.906Z,82.45
2018-02-01T00:26:36.004Z,83.06
2018-02-01T00:29:05.061Z,82.52
2018-02-01T00:31:34.926Z,82.34
2018-02-01T00:34:04.045Z,82.37
2018-02-01T00:36:33.105Z,82.08
2018-02-01T00:39:02.202Z,82.51
2018-02-01T00:41:31.275Z,82.67
2018-02-01T00:44:00.382Z,82.95
2018-02-01T00:46:29.457Z,83.00
2018-02-01T00:48:59.347Z,82.62
2018-02-01T00:51:29.212Z,82.75
2018-02-01T00:53:59.217Z,82.22
2018-02-01T00:56:28.317Z,83.01
2018-02-01T00:58:57.428Z,82.60
2018-02-01T01:01:26.485Z,83.05
2018-02-01T01:03:55.580Z,82.41
2018-02-01T01:06:25.417Z,82.87
2018-02-01T01:08:54.522Z,82.39
2018-02-01T01:11:23.626Z,82.87
2018-02-01T01:13:52.725Z,82.71
2018-02-01T01:16:21.778Z,82.56
2018-02-01T01:18:50.853Z,82.66
2018-02-01T01:21:20.725Z,81.65
2018-02-01T01:23:49.806Z,81.98
2018-02-01T01:26:18.905Z,82.15
2018-02-01T01:28:47.970Z,82.19
2018-02-01T01:31:17.073Z,82.34
2018-02-01T01:33:46.147Z,82.29
2018-02-01T01:36:16.005Z,81.55
2018-02-01T01:38:45.858Z,82.28
2018-02-01T01:41:14.972Z,82.22
2018-02-01T01:43:44.803Z,82.46
2018-02-01T01:46:13.894Z,83.13
2018-02-01T01:48:43.734Z,82.50
2018-02-01T01:51:12.819Z,83.11
2018-02-01T01:53:41.893Z,82.92
2018-02-01T01:56:11.750Z,82.98
2018-02-01T01:58:40.854Z,82.78
2018-02-01T02:01:10.712Z,82.42
2018-02-01T02:03:39.793Z,82.80
2018-02-01T02:06:08.861Z,82.60
2018-02-01T02:08:37.961Z,81.96
2018-02-01T02:11:07.045Z,82.21
2018-02-01T02:13:36.146Z,82.21
2018-02-01T02:16:05.209Z,82.40
2018-02-01T02:18:34.304Z,82.91
2018-02-01T02:21:03.374Z,83.02
2018-02-01T02:23:33.227Z,82.87
2018-02-01T02:26:02.334Z,82.98
2018-02-01T02:28:31.410Z,82.67
2018-02-01T02:31:00.501Z,82.08
2018-02-01T02:33:29.579Z,82.09
2018-02-01T02:35:58.670Z,82.13
2018-02-01T02:38:28.509Z,81.88
2018-02-01T02:40:57.607Z,81.42
2018-02-01T02:43:26.692Z,81.86
2018-02-01T02:45:55.782Z,81.65
2018-02-01T02:48:24.858Z,82.09
2018-02-01T02:50:54.709Z,82.36
2018-02-01T02:53:23.785Z,82.32
2018-02-01T02:55:52.885Z,82.49
2018-02-01T02:58:21.977Z,82.47
2018-02-01T03:00:51.055Z,82.62
2018-02-01T03:03:20.919Z,82.63
2018-02-01T03:05:49.991Z,82.94
2018-02-01T03:08:19.085Z,82.49
2018-02-01T03:10:48.198Z,82.63
2018-02-01T03:13:17.281Z,82.27
2018-02-01T03:15:46.360Z,82.44
2018-02-01T03:18:15.492Z,82.11
2018-02-01T03:20:44.575Z,82.18
2018-02-01T03:23:13.671Z,81.67
2018-02-01T03:25:42.737Z,81.94
2018-02-01T03:28:12.593Z,81.86
2018-02-01T03:30:41.668Z,81.93
2018-02-01T03:33:10.753Z,81.44
2018-02-01T03:35:39.860Z,82.10
2018-02-01T03:38:08.951Z,81.81
2018-02-01T03:40:38.034Z,81.12
2018-02-01T03:43:07.107Z,82.01
2018-02-01T03:45:36.195Z,81.73
2018-02-01T03:48:05.269Z,81.28
2018-02-01T03:50:34.362Z,81.58
2018-02-01T03:53:03.430Z,81.50
2018-02-01T03:55:32.521Z,81.40
2018-02-01T03:58:01.623Z,81.45
2018-02-01T04:00:31.486Z,81.65
2018-02-01T04:03:02.066Z,81.74
2018-02-01T04:05:31.373Z,81.89
2018-02-01T04:08:00.453Z,81.94
2018-02-01T04:10:29.561Z,82.18
2018-02-01T04:12:58.725Z,81.95
2018-02-01T04:15:28.559Z,81.84
2018-02-01T04:17:57.644Z,81.96
2018-02-01T04:20:26.738Z,81.60
2018-02-01T04:22:56.669Z,81.69
2018-02-01T04:25:26.650Z,81.67
2018-02-01T04:27:56.502Z,81.90
2018-02-01T04:30:25.575Z,81.79
2018-02-01T04:32:55.443Z,81.74
2018-02-01T04:35:24.518Z,81.70
2018-02-01T04:37:53.586Z,81.73
2018-02-01T04:40:22.676Z,81.32
2018-02-01T04:42:51.777Z,81.37
2018-02-01T04:45:21.617Z,81.30
2018-02-01T04:47:50.725Z,81.21
2018-02-01T04:50:20.588Z,81.14
2018-02-01T04:52:49.691Z,80.98
2018-02-01T04:55:18.791Z,80.66
2018-02-01T04:57:48.640Z,80.64
2018-02-01T05:00:17.717Z,80.82
2018-02-01T05:02:46.822Z,80.63
2018-02-01T05:05:16.661Z,80.99
2018-02-01T05:07:45.753Z,80.77
2018-02-01T05:10:14.874Z,80.68
2018-02-01T05:12:43.981Z,80.59
2018-02-01T05:15:13.815Z,80.56
2018-02-01T05:17:42.914Z,80.55
2018-02-01T05:20:12.004Z,80.44
2018-02-01T05:22:41.125Z,80.24
2018-02-01T05:25:10.947Z,80.27
2018-02-01T05:27:40.834Z,80.43
2018-02-01T05:30:10.671Z,80.30
2018-02-01T05:32:39.965Z,80.19
2018-02-01T05:35:09.070Z,80.53
2018-02-01T05:37:38.920Z,80.26
2018-02-01T05:40:08.182Z,80.08
2018-02-01T05:42:37.921Z,80.02
2018-02-01T05:45:07.007Z,79.89
2018-02-01T05:47:36.077Z,79.50
2018-02-01T05:50:05.161Z,79.06
2018-02-01T05:52:34.249Z,78.88
2018-02-01T05:55:03.338Z,78.99
2018-02-01T05:57:32.448Z,78.99
2018-02-01T06:00:01.521Z,79.19
2018-02-01T06:02:31.382Z,79.56
2018-02-01T06:05:00.464Z,79.45
2018-02-01T06:07:30.327Z,79.85
2018-02-01T06:10:00.177Z,79.97
2018-02-01T06:12:29.264Z,79.69
2018-02-01T06:14:58.351Z,79.91
2018-02-01T06:17:28.218Z,79.99
2018-02-01T06:19:57.290Z,79.85
2018-02-01T06:22:26.389Z,79.96
2018-02-01T06:24:55.470Z,79.92
2018-02-01T06:27:24.578Z,80.35
2018-02-01T06:29:53.648Z,80.97
2018-02-01T06:32:22.755Z,81.19
2018-02-01T06:34:51.835Z,80.74
2018-02-01T06:37:20.910Z,80.67
2018-02-01T06:39:50.768Z,80.51
2018-02-01T06:42:19.854Z,80.41
2018-02-01T06:44:48.941Z,80.00
2018-02-01T06:47:18.018Z,80.60
2018-02-01T06:49:47.900Z,80.78
2018-02-01T06:52:16.973Z,80.66
2018-02-01T06:54:46.065Z,80.69
2018-02-01T06:57:15.133Z,81.18
2018-02-01T06:59:44.225Z,81.44
2018-02-01T07:02:13.321Z,81.43
2018-02-01T07:04:42.413Z,81.37
2018-02-01T07:07:12.269Z,79.87
2018-02-01T07:09:41.366Z,80.60
2018-02-01T07:12:11.221Z,80.37
2018-02-01T07:14:40.316Z,79.82
2018-02-01T07:17:09.404Z,79.24
2018-02-01T07:19:38.606Z,78.10
2018-02-01T07:22:08.480Z,78.17
2018-02-01T07:24:37.542Z,78.05
2018-02-01T07:27:06.638Z,77.62
2018-02-01T07:29:35.732Z,77.44
2018-02-01T07:32:04.829Z,77.69
2018-02-01T07:34:33.925Z,77.64
2018-02-01T07:37:03.017Z,78.58
2018-02-01T07:39:32.889Z,79.04
2018-02-01T07:42:01.962Z,79.26
2018-02-01T07:44:31.046Z,79.27
2018-02-01T07:47:03.447Z,78.60
2018-02-01T07:49:32.525Z,78.68
2018-02-01T07:52:01.753Z,79.46
2018-02-01T07:54:30.821Z,79.64
2018-02-01T07:56:59.914Z,78.96
2018-02-01T07:59:28.989Z,78.85
2018-02-01T08:01:58.105Z,79.48
2018-02-01T08:04:27.174Z,79.59
2018-02-01T08:06:56.475Z,79.17
2018-02-01T08:09:26.319Z,79.37
2018-02-01T08:11:55.415Z,79.23
2018-02-01T08:14:24.552Z,79.10
2018-02-01T08:16:53.658Z,79.29
2018-02-01T08:19:23.786Z,79.21
2018-02-01T08:21:52.888Z,78.99
2018-02-01T08:24:22.715Z,79.41
2018-02-01T08:26:51.808Z,79.18
2018-02-01T08:29:20.879Z,79.33
2018-02-01T08:31:50.749Z,79.68
2018-02-01T08:34:19.833Z,80.25
2018-02-01T08:36:48.924Z,81.01
2018-02-01T08:39:18.018Z,80.55
2018-02-01T08:41:47.104Z,80.54
2018-02-01T08:44:16.193Z,80.62
2018-02-01T08:46:45.363Z,80.98
2018-02-01T08:49:15.206Z,79.54
2018-02-01T08:51:44.344Z,79.79
2018-02-01T08:54:13.416Z,79.92
2018-02-01T08:56:42.486Z,80.54
2018-02-01T08:59:11.598Z,80.49
2018-02-01T09:01:40.670Z,80.66
2018-02-01T09:04:10.518Z,80.57
2018-02-01T09:06:39.619Z,80.75
2018-02-01T09:09:08.698Z,80.53
2018-02-01T09:11:37.804Z,80.34
2018-02-01T09:14:06.957Z,80.68
2018-02-01T09:16:36.823Z,80.71
2018-02-01T09:19:05.893Z,81.25
2018-02-01T09:21:34.995Z,81.49
2018-02-01T09:24:04.110Z,81.12
2018-02-01T09:26:33.210Z,81.81
2018-02-01T09:29:02.285Z,81.62
2018-02-01T09:31:31.368Z,80.95
2018-02-01T09:34:00.465Z,82.16
2018-02-01T09:36:30.310Z,81.89
2018-02-01T09:38:59.391Z,81.23
2018-02-01T09:41:28.481Z,80.60
2018-02-01T09:43:58.327Z,80.49
2018-02-01T09:46:27.427Z,80.15
2018-02-01T09:48:56.520Z,79.43
2018-02-01T09:51:26.513Z,78.43
2018-02-01T09:53:55.689Z,78.55
2018-02-01T09:56:24.759Z,79.37
2018-02-01T09:58:54.621Z,80.03
2018-02-01T10:01:23.732Z,78.94
2018-02-01T10:03:52.829Z,79.32
2018-02-01T10:06:21.944Z,78.55
2018-02-01T10:08:51.017Z,78.60
2018-02-01T10:11:20.119Z,77.77
2018-02-01T10:13:50.015Z,77.46
2018-02-01T10:16:19.103Z,78.09
2018-02-01T10:18:48.199Z,78.22
2018-02-01T10:21:17.498Z,78.65
2018-02-01T10:23:46.573Z,78.49
2018-02-01T10:26:15.675Z,78.64
2018-02-01T10:28:44.778Z,78.58
2018-02-01T10:31:13.854Z,78.57
2018-02-01T10:33:42.950Z,77.58
2018-02-01T10:36:12.030Z,77.50
2018-02-01T10:38:41.900Z,77.35
2018-02-01T10:41:11.748Z,76.98
2018-02-01T10:43:41.614Z,76.87
2018-02-01T10:46:10.693Z,76.28
2018-02-01T10:48:39.805Z,74.55
2018-02-01T10:51:08.915Z,73.99
2018-02-01T10:53:38.021Z,72.89
2018-02-01T10:56:07.930Z,74.79
2018-02-01T10:58:36.998Z,70.55
2018-02-01T11:01:06.097Z,69.64
2018-02-01T11:03:35.182Z,69.80
2018-02-01T11:06:04.279Z,71.35
2018-02-01T11:08:33.350Z,72.24
2018-02-01T11:11:02.455Z,73.01
2018-02-01T11:13:32.301Z,70.73
2018-02-01T11:16:01.388Z,70.19
2018-02-01T11:18:30.478Z,68.96
2018-02-01T11:20:59.567Z,68.67
2018-02-01T11:23:28.638Z,68.54
2018-02-01T11:25:58.493Z,67.99
2018-02-01T11:28:27.585Z,68.57
2018-02-01T11:30:57.486Z,67.78
2018-02-01T11:33:27.361Z,67.35
2018-02-01T11:35:56.463Z,65.40
2018-02-01T11:38:26.316Z,64.85
2018-02-01T11:40:55.431Z,64.94
2018-02-01T11:43:24.491Z,66.47
2018-02-01T11:45:53.608Z,64.83
2018-02-01T11:48:23.443Z,66.39
2018-02-01T11:50:52.568Z,65.60
2018-02-01T11:53:21.673Z,65.21
2018-02-01T11:55:50.770Z,64.76
2018-02-01T11:58:20.631Z,63.45
2018-02-01T12:00:49.761Z,65.15
2018-02-01T12:03:19.341Z,65.54
2018-02-01T12:05:48.436Z,64.60
2018-02-01T12:08:17.534Z,63.75
2018-02-01T12:10:46.619Z,65.12
2018-02-01T12:13:16.490Z,64.11
2018-02-01T12:15:46.333Z,64.10
2018-02-01T12:18:15.416Z,63.59
2018-02-01T12:20:44.521Z,63.66
2018-02-01T12:23:13.610Z,63.74
2018-02-01T12:25:58.205Z,64.36
2018-02-01T12:28:27.295Z,66.05
2018-02-01T12:30:56.378Z,65.83
2018-02-01T12:33:25.482Z,66.00
2018-02-01T12:35:54.696Z,67.04
2018-02-01T12:38:23.787Z,64.27
2018-02-01T12:40:52.886Z,63.89
2018-02-01T12:43:21.978Z,64.78
2018-02-01T12:45:51.073Z,65.11
2018-02-01T12:48:20.960Z,64.55
2018-02-01T12:50:51.725Z,65.39
2018-02-01T12:53:20.826Z,64.90
2018-02-01T12:55:50.590Z,63.71
2018-02-01T12:58:20.460Z,64.31
2018-02-01T13:00:49.559Z,62.35
2018-02-01T13:03:18.667Z,60.09
2018-02-01T13:05:47.749Z,60.04
2018-02-01T13:08:16.864Z,60.26
2018-02-01T13:10:45.948Z,61.44
2018-02-01T13:13:16.526Z,62.07
2018-02-01T13:15:45.641Z,61.79
2018-02-01T13:18:14.743Z,60.76
2018-02-01T13:20:43.838Z,60.46
2018-02-01T13:23:12.943Z,61.20
2018-02-01T13:25:50.529Z,62.03
2018-02-01T13:28:39.994Z,60.73
2018-02-01T13:34:39.986Z,60.83
2018-02-01T13:40:33.617Z,59.91
2018-02-01T13:49:51.394Z,61.42
2018-02-01T13:52:20.472Z,61.20
2018-02-01T13:54:50.346Z,61.34
2018-02-01T13:57:22.281Z,61.83
2018-02-01T13:59:55.357Z,61.25
2018-02-01T14:02:24.498Z,61.63
2018-02-01T14:04:53.590Z,61.17
2018-02-01T14:07:22.687Z,62.10
2018-02-01T14:09:51.801Z,61.62
2018-02-01T14:12:21.672Z,61.74
2018-02-01T14:14:50.767Z,60.58
2018-02-01T14:17:20.631Z,61.32
2018-02-01T14:19:50.497Z,60.78
2018-02-01T14:22:19.608Z,61.25
2018-02-01T14:24:48.680Z,61.35
2018-02-01T14:27:17.794Z,62.93
2018-02-01T14:29:46.881Z,64.34
2018-02-01T14:32:15.982Z,66.08
2018-02-01T14:34:45.059Z,72.60
2018-02-01T14:37:14.161Z,76.68
2018-02-01T14:39:43.250Z,78.01
2018-02-01T14:42:12.325Z,78.50
2018-02-01T14:44:41.415Z,78.70
2018-02-01T14:47:11.336Z,78.71
2018-02-01T14:49:40.440Z,79.20
2018-02-01T14:52:09.543Z,79.60
2018-02-01T14:54:38.945Z,79.50
2018-02-01T14:57:08.044Z,79.01
2018-02-01T14:59:37.572Z,78.39
2018-02-01T15:02:06.666Z,77.91
2018-02-01T15:04:35.782Z,76.39
2018-02-01T15:07:04.879Z,76.50
2018-02-01T15:09:33.980Z,76.38
2018-02-01T15:12:03.074Z,75.15
2018-02-01T15:14:32.179Z,74.30
2018-02-01T15:17:01.268Z,74.19
2018-02-01T15:19:30.399Z,73.85
2018-02-01T15:22:00.275Z,72.53
2018-02-01T15:24:29.353Z,73.53
2018-02-01T15:26:58.459Z,73.45
2018-02-01T15:29:28.157Z,75.03
2018-02-01T15:31:57.263Z,76.04
2018-02-01T15:34:27.128Z,76.63
2018-02-01T15:36:56.986Z,77.02
2018-02-01T15:39:26.073Z,76.98
2018-02-01T15:41:55.189Z,76.25
2018-02-01T15:44:25.785Z,75.46
2018-02-01T15:46:54.885Z,74.29
2018-02-01T15:49:23.956Z,73.15
2018-02-01T15:51:53.062Z,74.98
2018-02-01T15:54:22.158Z,73.98
2018-02-01T15:56:51.256Z,74.27
2018-02-01T15:59:20.337Z,73.87
2018-02-01T16:01:49.458Z,74.53
2018-02-01T16:04:18.528Z,74.73
2018-02-01T16:06:47.626Z,74.72
2018-02-01T16:09:16.775Z,75.49
2018-02-01T16:11:45.868Z,76.41
2018-02-01T16:14:15.001Z,76.85
2018-02-01T16:16:45.783Z,77.21
2018-02-01T16:19:14.889Z,75.25
2018-02-01T16:21:43.980Z,75.69
2018-02-01T16:24:13.089Z,75.54
2018-02-01T16:26:42.195Z,75.15
2018-02-01T16:29:11.302Z,74.66
2018-02-01T16:31:41.161Z,74.14
2018-02-01T16:34:10.292Z,74.99
2018-02-01T16:36:39.393Z,74.57
2018-02-01T16:39:08.482Z,74.90
2018-02-01T16:41:37.597Z,74.52
2018-02-01T16:44:06.701Z,74.90
2018-02-01T16:46:36.606Z,75.05
2018-02-01T16:49:05.720Z,76.11
2018-02-01T16:51:35.595Z,77.36
2018-02-01T16:54:04.682Z,77.70
2018-02-01T16:56:33.824Z,77.83
2018-02-01T16:59:03.699Z,77.67
2018-02-01T17:01:32.844Z,77.09
2018-02-01T17:04:01.886Z,77.40
2018-02-01T17:06:31.014Z,77.21
2018-02-01T17:09:01.545Z,76.55
2018-02-01T17:11:30.654Z,75.66
2018-02-01T17:14:00.535Z,77.18
2018-02-01T17:16:29.628Z,78.08
2018-02-01T17:18:58.747Z,78.93
2018-02-01T17:21:28.622Z,79.14
2018-02-01T17:23:57.725Z,79.15
2018-02-01T17:26:26.851Z,79.01
2018-02-01T17:28:55.969Z,78.72
2018-02-01T17:31:25.817Z,79.56
2018-02-01T17:33:54.949Z,80.03
2018-02-01T17:36:24.053Z,80.53
2018-02-01T17:38:53.166Z,80.72
2018-02-01T17:41:23.037Z,80.32
2018-02-01T17:43:52.162Z,80.57
2018-02-01T17:46:22.641Z,79.98
2018-02-01T17:48:51.771Z,79.95
2018-02-01T17:51:20.863Z,80.00
2018-02-01T17:53:49.972Z,80.64
2018-02-01T17:56:19.085Z,80.75
2018-02-01T17:58:48.984Z,79.60
2018-02-01T18:01:18.103Z,79.26
2018-02-01T18:03:47.971Z,78.21
2018-02-01T18:06:17.047Z,79.17
2018-02-01T18:08:46.147Z,79.01
2018-02-01T18:11:15.255Z,77.94
2018-02-01T18:13:45.264Z,78.75
2018-02-01T18:16:15.220Z,79.10
2018-02-01T18:18:48.192Z,79.98
2018-02-01T18:21:17.292Z,80.05
2018-02-01T18:23:47.178Z,80.46
2018-02-01T18:26:20.628Z,80.55
2018-02-01T18:28:55.803Z,79.76
2018-02-01T18:31:24.885Z,78.64
2018-02-01T18:33:54.001Z,77.66
2018-02-01T18:36:23.167Z,77.86
2018-02-01T18:38:53.026Z,78.52
2018-02-01T18:41:22.103Z,79.77
2018-02-01T18:43:51.213Z,80.21
2018-02-01T18:46:21.078Z,80.06
2018-02-01T18:48:51.113Z,80.52
2018-02-01T18:51:22.520Z,79.57
2018-02-01T18:53:53.042Z,81.04
2018-02-01T18:56:22.171Z,80.78
2018-02-01T18:58:52.021Z,80.14
2018-02-01T19:01:21.908Z,80.73
2018-02-01T19:03:52.047Z,80.31
2018-02-01T19:06:21.841Z,80.21
2018-02-01T19:08:51.528Z,79.56
2018-02-01T19:11:20.651Z,79.67
2018-02-01T19:13:51.152Z,79.41
2018-02-01T19:16:20.244Z,80.05
2018-02-01T19:21:39.331Z,79.54
2018-02-01T19:24:09.269Z,79.83
2018-02-01T19:26:38.662Z,79.59
2018-02-01T19:29:08.555Z,79.57
2018-02-01T19:31:37.671Z,79.68
2018-02-01T19:34:07.554Z,80.09
2018-02-01T19:36:36.674Z,79.91
2018-02-01T19:39:07.944Z,79.96
2018-02-01T19:41:37.131Z,79.80
2018-02-01T19:44:07.833Z,79.24
2018-02-01T19:46:36.954Z,79.32
2018-02-01T19:49:08.402Z,79.74
2018-02-01T19:51:37.512Z,79.96
2018-02-01T19:54:07.386Z,79.23
2018-02-01T19:56:36.501Z,79.35
2018-02-01T19:59:05.623Z,79.60
2018-02-01T20:01:35.471Z,79.67
2018-02-01T20:04:04.606Z,79.69
2018-02-01T20:06:33.694Z,79.16
2018-02-01T20:09:02.827Z,79.30
2018-02-01T20:11:31.921Z,79.07
2018-02-01T20:14:01.824Z,79.25
2018-02-01T20:16:31.692Z,79.14
2018-02-01T20:19:00.819Z,79.87
2018-02-01T20:21:29.937Z,79.10
2018-02-01T20:23:59.810Z,79.36
2018-02-01T20:26:28.960Z,79.41
2018-02-01T20:28:58.081Z,79.24
2018-02-01T20:31:27.184Z,78.24
2018-02-01T20:33:57.174Z,79.46
2018-02-01T20:36:27.071Z,78.90
2018-02-01T20:38:56.942Z,78.75
2018-02-01T20:41:26.049Z,78.96
2018-02-01T20:43:55.217Z,78.87
2018-02-01T20:46:24.318Z,79.01
2018-02-01T20:48:53.456Z,79.00
2018-02-01T20:51:23.328Z,78.81
2018-02-01T20:53:53.207Z,78.61
2018-02-01T20:56:23.112Z,78.69
2018-02-01T20:58:52.982Z,78.83
2018-02-01T21:01:22.082Z,79.06
2018-02-01T21:03:51.150Z,78.53
2018-02-01T21:06:21.022Z,78.61
2018-02-01T21:08:51.856Z,78.61
2018-02-01T21:11:20.902Z,78.73
2018-02-01T21:13:50.008Z,78.52
2018-02-01T21:16:19.110Z,78.71
2018-02-01T21:18:48.205Z,78.98
2018-02-01T21:21:17.328Z,78.36
2018-02-01T21:23:46.394Z,78.46
2018-02-01T21:26:15.522Z,78.65
2018-02-01T21:28:45.375Z,78.05
2018-02-01T21:31:14.499Z,77.93
2018-02-01T21:33:43.581Z,78.21
2018-02-01T21:36:12.688Z,77.42
2018-02-01T21:38:41.812Z,78.02
2018-02-01T21:41:11.700Z,78.11
2018-02-01T21:43:40.835Z,78.11
2018-02-01T21:46:10.691Z,78.35
2018-02-01T21:48:39.820Z,79.02
2018-02-01T21:51:08.943Z,79.03
2018-02-01T21:53:38.816Z,79.16
2018-02-01T21:56:07.891Z,78.97
2018-02-01T21:58:37.835Z,78.40
2018-02-01T22:01:06.910Z,79.03
2018-02-01T22:03:36.002Z,78.90
2018-02-01T22:06:05.182Z,78.59
2018-02-01T22:08:34.579Z,78.74
2018-02-01T22:11:03.719Z,78.71
2018-02-01T22:13:32.818Z,78.75
2018-02-01T22:16:01.909Z,79.16
2018-02-01T22:18:31.019Z,79.10
2018-02-01T22:21:00.108Z,78.97
2018-02-01T22:23:29.213Z,79.15
2018-02-01T22:25:58.322Z,79.18
2018-02-01T22:28:28.172Z,79.34
2018-02-01T22:30:57.276Z,79.04
2018-02-01T22:33:26.872Z,79.20
2018-02-01T22:35:55.984Z,78.94
2018-02-01T22:38:25.077Z,79.10
2018-02-01T22:40:54.181Z,79.07
2018-02-01T22:43:23.250Z,78.83
2018-02-01T22:45:52.362Z,78.83
2018-02-01T22:48:21.472Z,78.77
2018-02-01T22:50:51.359Z,78.35
2018-02-01T22:53:20.418Z,78.27
2018-02-01T22:55:50.292Z,78.65
2018-02-01T22:58:19.383Z,78.54
2018-02-01T23:00:48.529Z,78.78
2018-02-01T23:03:17.597Z,78.36
2018-02-01T23:05:46.682Z,78.36
2018-02-01T23:08:15.773Z,78.21
2018-02-01T23:10:44.882Z,78.55
2018-02-01T23:13:13.977Z,78.25
2018-02-01T23:15:43.061Z,77.60
2018-02-01T23:18:12.152Z,77.81
2018-02-01T23:20:41.241Z,77.55
2018-02-01T23:23:10.326Z,77.40
2018-02-01T23:25:39.411Z,77.30
2018-02-01T23:28:09.349Z,77.37
2018-02-01T23:30:38.476Z,78.13
2018-02-01T23:33:07.593Z,78.04
2018-02-01T23:35:36.661Z,77.88
2018-02-01T23:38:05.767Z,78.67
2018-02-01T23:40:34.866Z,78.70
2018-02-01T23:43:04.710Z,78.72
2018-02-01T23:45:33.794Z,78.82
2018-02-01T23:48:03.673Z,78.55
2018-02-01T23:50:32.775Z,78.79
2018-02-01T23:53:01.870Z,79.04
2018-02-01T23:55:30.947Z,79.45
2018-02-01T23:58:00.126Z,78.88
